Time;durP1;ratioP1;P1;durP2;ratioP2;P2;SDS_P1;SDS_P2;PMS_P1;PMS_P2;Temp;Humidity;BMP_temperature;BMP_pressure;BME280_temperature;BME280_humidity;BME280_pressure;Samples;Min_cycle;Max_cycle;Signal;HPM_P1;HPM_P2
2022/03/06 00:00:25;;;;;;;0.20;0.20;;;;;;;13.23;nan;102300.16;10593128;27;20051;-77
2022/03/06 00:05:27;;;;;;;0.20;0.20;;;;;;;13.16;nan;102297.34;10593031;27;20039;-77
2022/03/06 00:10:41;;;;;;;0.35;0.35;;;;;;;12.83;nan;102307.28;10609390;27;20515;-77
2022/03/06 00:15:43;;;;;;;0.82;0.80;;;;;;;11.73;nan;102316.53;10608911;27;20053;-77
2022/03/06 00:20:45;;;;;;;1.25;1.15;;;;;;;12.33;nan;102318.22;10609531;27;20049;-78
2022/03/06 00:25:47;;;;;;;0.57;0.57;;;;;;;11.62;nan;102328.09;10609809;27;20042;-77
2022/03/06 00:30:48;;;;;;;0.00;0.00;;;;;;;12.04;nan;102320.47;10608822;27;20051;-77
2022/03/06 00:35:50;;;;;;;1.02;0.93;;;;;;;11.70;nan;102321.56;10608278;27;20049;-77
2022/03/06 00:41:12;;;;;;;4.82;2.70;;;;;;;10.81;nan;102331.25;10583732;28;20047;-78
2022/03/06 00:46:14;;;;;;;3.30;1.52;;;;;;;11.26;nan;102333.38;10565624;28;20075;-79
2022/03/06 00:51:16;;;;;;;0.50;0.50;;;;;;;11.41;nan;102336.66;10533338;28;20058;-78
2022/03/06 00:56:20;;;;;;;0.45;0.45;;;;;;;11.81;nan;102336.63;10603951;27;20053;-77
2022/03/06 01:01:21;;;;;;;2.17;1.25;;;;;;;11.48;nan;102342.09;10578924;28;20048;-77
2022/03/06 01:06:23;;;;;;;0.10;0.10;;;;;;;12.03;nan;102349.69;10562864;28;20126;-77
2022/03/06 01:11:25;;;;;;;0.10;0.10;;;;;;;12.04;nan;102348.88;10601011;27;20119;-77
2022/03/06 01:16:26;;;;;;;0.00;0.00;;;;;;;11.95;nan;102352.75;10588432;27;20506;-78
2022/03/06 01:21:29;;;;;;;2.53;1.40;;;;;;;10.70;nan;102361.69;10539466;28;20052;-77
2022/03/06 01:26:30;;;;;;;2.33;1.45;;;;;;;11.69;nan;102355.09;10563113;28;20036;-78
2022/03/06 01:31:32;;;;;;;0.08;0.08;;;;;;;11.63;nan;102355.69;10566011;27;20047;-77
2022/03/06 01:36:59;;;;;;;1.20;0.70;;;;;;;11.51;nan;102349.94;10577992;28;20502;-78
2022/03/06 01:42:02;;;;;;;0.95;0.90;;;;;;;10.41;nan;102357.69;10563229;28;20054;-78
2022/03/06 01:47:05;;;;;;;1.30;1.20;;;;;;;10.73;nan;102351.53;10584723;27;20489;-78
2022/03/06 01:52:22;;;;;;;1.23;0.80;;;;;;;11.27;nan;102348.03;10551822;28;20495;-77
2022/03/06 01:57:26;;;;;;;1.55;1.42;;;;;;;10.43;nan;102364.69;10567484;28;20050;-77
2022/03/06 02:02:28;;;;;;;5.82;0.95;;;;;;;10.39;nan;102360.16;10556364;28;20089;-77
2022/03/06 02:07:57;;;;;;;4.25;1.50;;;;;;;10.88;nan;102363.38;10562021;28;20123;-77
2022/03/06 02:12:59;;;;;;;2.35;2.15;;;;;;;10.92;nan;102365.28;10570691;28;20135;-78
2022/03/06 02:18:01;;;;;;;4.57;2.30;;;;;;;10.39;nan;102370.47;10562714;28;20047;-78
2022/03/06 02:23:10;;;;;;;0.75;0.63;;;;;;;11.21;nan;102366.69;10554416;28;20090;-77
2022/03/06 02:28:11;;;;;;;6.68;2.42;;;;;;;10.35;nan;102368.53;10588278;28;20066;-77
2022/03/06 02:33:27;;;;;;;0.93;0.40;;;;;;;11.02;nan;102370.09;10538381;28;20054;-76
2022/03/06 02:38:29;;;;;;;1.40;1.08;;;;;;;11.20;nan;102369.19;10559726;28;20047;-76
2022/03/06 02:43:30;;;;;;;2.63;1.83;;;;;;;10.32;nan;102376.09;10545337;28;20044;-78
2022/03/06 02:48:36;;;;;;;1.48;1.25;;;;;;;11.11;nan;102365.38;10545861;28;20166;-77
2022/03/06 02:53:39;;;;;;;2.38;1.95;;;;;;;10.46;nan;102369.09;10557202;27;20168;-77
2022/03/06 02:58:40;;;;;;;3.60;1.42;;;;;;;10.59;nan;102368.88;10582220;27;20465;-77
2022/03/06 03:03:44;;;;;;;1.10;1.00;;;;;;;10.77;nan;102363.75;10557633;27;20047;-77
2022/03/06 03:08:46;;;;;;;0.93;0.90;;;;;;;11.25;nan;102367.72;10542459;28;20493;-76
2022/03/06 03:13:48;;;;;;;1.02;0.60;;;;;;;10.99;nan;102375.09;10562374;28;20052;-77
2022/03/06 03:18:49;;;;;;;2.25;1.55;;;;;;;10.23;nan;102373.94;10571719;28;20054;-78
2022/03/06 03:23:51;;;;;;;0.20;0.20;;;;;;;11.71;nan;102369.81;10568990;27;20047;-77
2022/03/06 03:28:53;;;;;;;1.50;1.33;;;;;;;10.86;nan;102370.16;10581261;27;20378;-77
2022/03/06 03:33:56;;;;;;;1.42;0.70;;;;;;;10.90;nan;102372.97;10567131;27;20092;-78
2022/03/06 03:38:58;;;;;;;0.57;0.55;;;;;;;10.68;nan;102378.78;10552295;27;20051;-78
2022/03/06 03:43:59;;;;;;;0.22;0.22;;;;;;;11.33;nan;102381.84;10546016;28;20048;-78
2022/03/06 03:49:01;;;;;;;1.45;1.08;;;;;;;10.56;nan;102383.31;10544360;28;20043;-78
2022/03/06 03:54:04;;;;;;;1.52;1.17;;;;;;;11.06;nan;102384.00;10549897;28;20524;-78
2022/03/06 03:59:05;;;;;;;0.55;0.55;;;;;;;11.26;nan;102384.97;10566708;28;20050;-78
2022/03/06 04:04:08;;;;;;;0.50;0.50;;;;;;;10.73;nan;102381.56;10565554;28;20398;-77
2022/03/06 04:09:09;;;;;;;1.65;1.15;;;;;;;10.16;nan;102385.59;10566484;28;20513;-78
2022/03/06 04:14:11;;;;;;;3.00;1.85;;;;;;;9.64;nan;102396.63;10552260;28;20110;-77
2022/03/06 04:19:14;;;;;;;0.20;0.20;;;;;;;10.52;nan;102394.28;10546832;28;20054;-79
2022/03/06 04:24:20;;;;;;;0.82;0.68;;;;;;;10.77;nan;102396.38;10565303;28;20452;-78
2022/03/06 04:29:22;;;;;;;2.15;1.60;;;;;;;10.47;nan;102397.50;10568021;27;20038;-78
2022/03/06 04:34:24;;;;;;;1.30;1.08;;;;;;;10.79;nan;102400.81;10555832;27;20048;-77
2022/03/06 04:39:26;;;;;;;0.65;0.55;;;;;;;10.27;nan;102411.03;10560045;27;20489;-78
2022/03/06 04:44:27;;;;;;;0.40;0.40;;;;;;;10.43;nan;102413.63;10595161;27;20047;-78
2022/03/06 04:49:29;;;;;;;0.17;0.17;;;;;;;10.41;nan;102425.53;10532790;28;20708;-77
2022/03/06 04:54:38;;;;;;;0.10;0.10;;;;;;;11.16;nan;102429.19;10568723;27;20058;-78
2022/03/06 04:59:40;;;;;;;1.10;0.82;;;;;;;10.59;nan;102440.19;10525288;28;20462;-78
2022/03/06 05:04:42;;;;;;;0.08;0.08;;;;;;;10.94;nan;102443.63;10559488;28;20047;-77
2022/03/06 05:09:45;;;;;;;0.10;0.10;;;;;;;11.24;nan;102443.34;10547305;28;20051;-77
2022/03/06 05:14:46;;;;;;;0.63;0.63;;;;;;;11.35;nan;102444.75;10563506;28;20040;-77
2022/03/06 05:19:50;;;;;;;2.47;1.55;;;;;;;10.34;nan;102454.34;10566070;27;20055;-76
2022/03/06 05:24:58;;;;;;;0.00;0.00;;;;;;;11.56;nan;102452.59;10536157;28;20394;-77
2022/03/06 05:29:59;;;;;;;0.00;0.00;;;;;;;10.75;nan;102447.88;10572342;28;20050;-76
2022/03/06 05:35:02;;;;;;;0.13;0.13;;;;;;;10.21;nan;102457.09;10558196;28;20084;-78
2022/03/06 05:40:06;;;;;;;0.20;0.20;;;;;;;11.56;nan;102456.88;10570918;28;20078;-79
2022/03/06 05:45:08;;;;;;;0.00;0.00;;;;;;;11.03;nan;102458.66;10545676;27;20052;-79
2022/03/06 05:50:11;;;;;;;0.80;0.63;;;;;;;9.50;nan;102485.94;10539897;28;20517;-77
2022/03/06 05:55:12;;;;;;;0.00;0.00;;;;;;;11.60;nan;102469.09;10556610;28;20043;-78
2022/03/06 06:00:17;;;;;;;0.57;0.50;;;;;;;10.45;nan;102481.59;10562004;28;20135;-78
2022/03/06 06:05:19;;;;;;;0.10;0.10;;;;;;;11.47;nan;102477.09;10534364;28;20046;-78
2022/03/06 06:10:21;;;;;;;0.10;0.10;;;;;;;10.54;nan;102485.41;10605215;27;20417;-78
2022/03/06 06:15:23;;;;;;;0.22;0.22;;;;;;;10.20;nan;102489.66;10546416;28;20040;-77
2022/03/06 06:20:25;;;;;;;0.55;0.52;;;;;;;10.18;nan;102496.44;10561170;28;20055;-78
2022/03/06 06:25:27;;;;;;;0.88;0.73;;;;;;;10.26;nan;102497.75;10562706;28;20077;-78
2022/03/06 06:30:29;;;;;;;0.28;0.28;;;;;;;10.44;nan;102502.09;10588520;28;20043;-78
2022/03/06 06:35:32;;;;;;;0.55;0.55;;;;;;;10.01;nan;102508.44;10575417;27;20036;-78
2022/03/06 06:40:35;;;;;;;0.93;0.28;;;;;;;10.45;nan;102514.19;10570160;27;20106;-79
2022/03/06 06:45:37;;;;;;;0.93;0.68;;;;;;;10.05;nan;102523.22;10564973;27;20047;-78
2022/03/06 06:50:40;;;;;;;0.65;0.47;;;;;;;11.21;nan;102525.72;10559857;28;20436;-78
2022/03/06 06:55:41;;;;;;;0.98;0.98;;;;;;;10.65;nan;102525.53;10537706;28;20044;-78
2022/03/06 07:00:44;;;;;;;1.33;1.23;;;;;;;10.73;nan;102531.97;10567774;28;20741;-79
2022/03/06 07:05:47;;;;;;;3.45;1.73;;;;;;;9.51;nan;102557.16;10537752;28;20048;-80
2022/03/06 07:10:49;;;;;;;4.75;2.45;;;;;;;9.80;nan;102554.47;10537093;28;20036;-80
2022/03/06 07:16:04;;;;;;;0.73;0.73;;;;;;;9.92;nan;102562.00;10544098;28;20044;-79
2022/03/06 07:21:10;;;;;;;0.40;0.40;;;;;;;11.41;nan;102561.16;10548749;28;20055;-78
2022/03/06 07:26:13;;;;;;;8.75;4.50;;;;;;;8.73;nan;102589.47;10556855;28;20482;-79
2022/03/06 07:31:16;;;;;;;7.53;3.15;;;;;;;10.60;nan;102588.84;10542050;28;20075;-79
2022/03/06 07:36:18;;;;;;;11.13;5.55;;;;;;;9.14;nan;102591.06;10558626;28;20074;-78
2022/03/06 07:41:21;;;;;;;8.75;5.55;;;;;;;9.91;nan;102596.25;10539696;28;20050;-78
2022/03/06 07:46:23;;;;;;;1.38;1.27;;;;;;;10.72;nan;102597.22;10547796;28;20040;-77
2022/03/06 07:51:26;;;;;;;11.82;5.78;;;;;;;9.95;nan;102598.19;10562396;28;20127;-78
2022/03/06 07:56:28;;;;;;;4.20;3.25;;;;;;;10.88;nan;102598.03;10547277;28;20036;-77
2022/03/06 08:01:31;;;;;;;5.07;3.28;;;;;;;11.22;nan;102599.75;10528732;28;20135;-77
2022/03/06 08:06:33;;;;;;;4.38;2.15;;;;;;;11.83;nan;102601.00;10569507;28;20044;-77
2022/03/06 08:11:35;;;;;;;3.03;2.20;;;;;;;11.84;nan;102611.38;10553205;28;20047;-77
2022/03/06 08:16:55;;;;;;;3.03;2.35;;;;;;;12.67;nan;102611.81;10538788;28;20052;-76
2022/03/06 08:21:57;;;;;;;6.97;2.08;;;;;;;12.13;nan;102617.13;10545100;28;20070;-77
2022/03/06 08:27:00;;;;;;;19.75;3.45;;;;;;;12.58;nan;102626.91;10531754;28;20054;-78
2022/03/06 08:32:06;;;;;;;1.75;1.60;;;;;;;12.15;nan;102627.50;10544994;28;20044;-78
2022/03/06 08:37:08;;;;;;;5.93;3.08;;;;;;;12.51;nan;102635.19;10549239;28;20095;-79
2022/03/06 08:42:12;;;;;;;5.65;1.88;;;;;;;13.50;nan;102631.75;10542680;28;20039;-78
2022/03/06 08:47:14;;;;;;;4.95;2.88;;;;;;;12.35;nan;102634.50;10548914;28;20040;-79
2022/03/06 08:52:15;;;;;;;2.92;1.55;;;;;;;12.95;nan;102633.72;10526421;28;20039;-78
2022/03/06 08:57:17;;;;;;;0.73;0.73;;;;;;;13.66;nan;102624.63;10531117;28;20032;-79
2022/03/06 09:02:19;;;;;;;7.30;4.15;;;;;;;11.98;nan;102637.91;10541216;28;20051;-78
2022/03/06 09:07:21;;;;;;;5.93;3.47;;;;;;;12.66;nan;102635.91;10558882;27;20039;-79
2022/03/06 09:12:26;;;;;;;1.40;1.13;;;;;;;14.36;nan;102636.88;10607095;27;20142;-79
2022/03/06 09:17:27;;;;;;;6.28;2.53;;;;;;;13.59;nan;102634.69;10584875;27;20043;-79
2022/03/06 09:22:29;;;;;;;7.05;3.75;;;;;;;14.25;nan;102627.78;10563775;28;20130;-78
2022/03/06 09:27:31;;;;;;;3.47;3.22;;;;;;;15.42;nan;102618.16;10560812;28;20054;-80
2022/03/06 09:32:57;;;;;;;2.95;2.17;;;;;;;15.00;nan;102627.09;10546518;28;20055;-80
2022/03/06 09:38:17;;;;;;;4.97;2.28;;;;;;;14.15;nan;102639.53;10538629;28;20487;-80
2022/03/06 09:43:22;;;;;;;7.40;3.88;;;;;;;12.98;nan;102646.81;10522285;28;20040;-79
2022/03/06 09:48:23;;;;;;;3.20;1.63;;;;;;;15.51;nan;102640.94;10518412;28;20057;-80
2022/03/06 09:53:31;;;;;;;2.58;1.45;;;;;;;15.54;nan;102631.53;10522962;28;20054;-80
2022/03/06 09:58:33;;;;;;;1.88;1.58;;;;;;;15.19;nan;102639.03;10562175;28;20047;-80
2022/03/06 10:03:35;;;;;;;0.80;0.50;;;;;;;17.27;nan;102629.66;10554668;28;20048;-80
2022/03/06 10:08:37;;;;;;;2.88;2.00;;;;;;;16.09;nan;102636.75;10527807;28;20044;-80
2022/03/06 10:13:47;;;;;;;1.70;1.23;;;;;;;16.01;nan;102635.63;10513957;28;20056;-80
2022/03/06 10:18:55;;;;;;;4.55;1.63;;;;;;;15.02;nan;102634.94;10540434;28;20483;-80
2022/03/06 10:23:58;;;;;;;1.17;0.60;;;;;;;15.36;nan;102631.78;10547457;28;20035;-79
2022/03/06 10:29:01;;;;;;;0.52;0.35;;;;;;;17.88;nan;102618.97;10534403;28;20051;-81
2022/03/06 10:34:55;;;;;;;0.32;0.30;;;;;;;17.97;nan;102616.63;10575351;28;20047;-79
2022/03/06 10:40:31;;;;;;;0.30;0.30;;;;;;;18.02;nan;102621.94;10554368;28;20109;-79
2022/03/06 10:45:32;;;;;;;3.00;1.98;;;;;;;16.28;nan;102626.91;10553826;28;20044;-79
2022/03/06 10:50:34;;;;;;;2.25;1.80;;;;;;;16.15;nan;102631.75;10545906;28;20048;-79
2022/03/06 10:55:36;;;;;;;0.20;0.20;;;;;;;18.30;nan;102626.00;10546780;28;20046;-79
2022/03/06 11:00:39;;;;;;;1.20;0.90;;;;;;;16.85;nan;102631.13;10535272;28;20402;-79
2022/03/06 11:05:45;;;;;;;0.98;0.60;;;;;;;16.79;nan;102625.75;10545248;28;20035;-80
2022/03/06 11:10:48;;;;;;;2.53;1.30;;;;;;;16.92;nan;102621.78;10554112;27;20104;-80
2022/03/06 11:15:50;;;;;;;0.10;0.10;;;;;;;18.51;nan;102622.09;10564530;28;20139;-80
2022/03/06 11:20:54;;;;;;;1.15;0.93;;;;;;;17.26;nan;102627.91;10550815;28;20089;-79
2022/03/06 11:26:17;;;;;;;2.80;1.40;;;;;;;17.27;nan;102625.34;10567544;27;20043;-80
2022/03/06 11:31:18;;;;;;;3.42;1.83;;;;;;;16.84;nan;102625.91;10560426;28;20058;-81
2022/03/06 11:36:25;;;;;;;0.95;0.57;;;;;;;17.88;nan;102634.63;10568424;28;20044;-80
2022/03/06 11:41:27;;;;;;;0.80;0.60;;;;;;;18.05;nan;102628.09;10546492;28;20399;-80
2022/03/06 11:46:29;;;;;;;4.10;2.20;;;;;;;15.66;nan;102638.84;10537362;28;20094;-80
2022/03/06 11:51:31;;;;;;;0.63;0.63;;;;;;;17.42;nan;102614.44;10516348;28;20051;-80
2022/03/06 11:56:37;;;;;;;14.43;0.73;;;;;;;18.90;nan;102605.44;10559286;27;20050;-80
2022/03/06 12:01:44;;;;;;;2.80;1.65;;;;;;;16.45;nan;102610.09;10525882;28;20173;-79
2022/03/06 12:06:49;;;;;;;3.15;1.73;;;;;;;15.70;nan;102617.34;10584547;28;20035;-80
2022/03/06 12:11:53;;;;;;;2.72;1.33;;;;;;;16.72;nan;102603.88;10548773;28;20043;-80
2022/03/06 12:17:02;;;;;;;1.90;1.25;;;;;;;15.95;nan;102601.66;10567362;27;20035;-79
2022/03/06 12:22:11;;;;;;;2.63;1.42;;;;;;;15.55;nan;102599.53;10573851;27;20498;-79
2022/03/06 12:27:17;;;;;;;1.47;0.80;;;;;;;16.92;nan;102587.94;10567047;28;20071;-80
2022/03/06 12:32:25;;;;;;;0.00;0.00;;;;;;;17.66;nan;102582.00;10566144;27;20051;-78
2022/03/06 12:37:27;;;;;;;2.50;1.85;;;;;;;15.43;nan;102590.44;10544887;28;20040;-80
2022/03/06 12:42:31;;;;;;;1.25;1.10;;;;;;;16.23;nan;102586.88;10540796;28;20058;-79
2022/03/06 12:47:34;;;;;;;2.55;1.02;;;;;;;18.30;nan;102576.44;10524934;28;20062;-80
2022/03/06 12:52:36;;;;;;;2.05;1.58;;;;;;;15.80;nan;102581.22;10523292;28;20062;-79
2022/03/06 12:57:39;;;;;;;0.47;0.45;;;;;;;16.41;nan;102569.22;10507011;28;20063;-79
2022/03/06 13:02:41;;;;;;;1.83;1.60;;;;;;;14.88;nan;102570.47;10563212;28;20043;-78
2022/03/06 13:07:43;;;;;;;1.42;0.95;;;;;;;16.58;nan;102558.38;10542766;28;20450;-79
2022/03/06 13:12:46;;;;;;;4.75;1.33;;;;;;;16.30;nan;102563.72;10566080;28;20135;-80
2022/03/06 13:18:02;;;;;;;3.28;2.10;;;;;;;14.91;nan;102570.59;10563860;28;20413;-79
2022/03/06 13:23:19;;;;;;;0.38;0.38;;;;;;;17.75;nan;102560.47;10555405;28;20046;-79
2022/03/06 13:28:22;;;;;;;1.65;0.85;;;;;;;16.81;nan;102552.09;10581140;28;20040;-79
2022/03/06 13:33:27;;;;;;;5.70;1.88;;;;;;;14.98;nan;102556.09;10526697;28;20055;-80
2022/03/06 13:38:30;;;;;;;2.55;1.50;;;;;;;16.52;nan;102547.81;10551671;28;20035;-79
2022/03/06 13:44:22;;;;;;;4.68;2.22;;;;;;;16.34;nan;102552.56;10554877;27;20479;-79
2022/03/06 13:49:24;;;;;;;0.55;0.47;;;;;;;17.03;nan;102541.38;10586629;27;20548;-78
2022/03/06 13:54:38;;;;;;;0.43;0.43;;;;;;;17.88;nan;102545.97;10557561;27;20109;-78
2022/03/06 13:59:42;;;;;;;0.38;0.17;;;;;;;17.62;nan;102543.66;10532485;28;20054;-80
2022/03/06 14:05:15;;;;;;;4.10;2.45;;;;;;;14.03;nan;102548.34;10539783;28;20119;-78
2022/03/06 14:10:17;;;;;;;1.88;1.25;;;;;;;15.75;nan;102552.50;10542170;28;20052;-79
2022/03/06 14:16:00;;;;;;;5.47;1.27;;;;;;;15.00;nan;102544.06;10561839;28;20080;-78
2022/03/06 14:21:18;;;;;;;3.28;1.45;;;;;;;16.83;nan;102533.03;10541496;28;20417;-79
2022/03/06 14:26:26;;;;;;;9.60;2.88;;;;;;;15.28;nan;102549.28;10547020;28;20044;-83
2022/03/06 14:31:29;;;;;;;0.93;0.55;;;;;;;16.89;nan;102541.88;10544655;28;20044;-81
2022/03/06 14:36:32;;;;;;;3.03;2.03;;;;;;;14.91;nan;102549.81;10540985;28;20054;-81
2022/03/06 14:41:36;;;;;;;0.98;0.90;;;;;;;17.12;nan;102532.06;10543915;28;20063;-80
2022/03/06 14:46:39;;;;;;;3.17;1.98;;;;;;;15.61;nan;102533.00;10557388;28;20044;-84
2022/03/06 14:51:41;;;;;;;6.82;2.17;;;;;;;15.55;nan;102539.78;10539310;28;20043;-83
2022/03/06 14:56:43;;;;;;;3.83;1.70;;;;;;;14.99;nan;102531.03;10545526;28;20042;-81
2022/03/06 15:01:45;;;;;;;1.17;0.73;;;;;;;15.45;nan;102531.66;10529781;28;20048;-82
2022/03/06 15:06:47;;;;;;;2.47;1.73;;;;;;;15.51;nan;102537.94;10568020;27;20481;-84
2022/03/06 15:11:48;;;;;;;3.65;2.65;;;;;;;14.45;nan;102530.00;10542855;27;20047;-84
2022/03/06 15:16:50;;;;;;;2.92;1.60;;;;;;;14.99;nan;102533.63;10568362;28;20287;-83
2022/03/06 15:21:53;;;;;;;0.57;0.50;;;;;;;16.06;nan;102534.41;10540420;28;20506;-82
2022/03/06 15:26:55;;;;;;;3.58;1.27;;;;;;;16.26;nan;102527.19;10541455;28;20359;-82
2022/03/06 15:31:56;;;;;;;0.63;0.63;;;;;;;16.18;nan;102533.03;10558246;28;20210;-81
2022/03/06 15:36:58;;;;;;;1.17;0.30;;;;;;;16.71;nan;102526.66;10541099;28;20061;-82
2022/03/06 15:42:08;;;;;;;0.38;0.38;;;;;;;16.05;nan;102515.28;10532838;28;20133;-82
2022/03/06 15:47:10;;;;;;;0.43;0.30;;;;;;;15.92;nan;102520.97;10534708;28;20521;-81
2022/03/06 15:52:12;;;;;;;1.45;0.57;;;;;;;15.53;nan;102531.03;10547797;28;20169;-80
2022/03/06 15:57:14;;;;;;;1.58;0.63;;;;;;;15.12;nan;102527.13;10552772;28;20084;-81
2022/03/06 16:02:20;;;;;;;0.20;0.20;;;;;;;16.08;nan;102509.34;10532323;28;20048;-80
2022/03/06 16:07:23;;;;;;;0.10;0.10;;;;;;;15.69;nan;102513.34;10546875;28;20055;-81
2022/03/06 16:12:27;;;;;;;0.55;0.32;;;;;;;16.45;nan;102516.44;10548343;28;20036;-79
2022/03/06 16:17:47;;;;;;;1.42;0.93;;;;;;;15.42;nan;102532.44;10548808;28;20063;-82
2022/03/06 16:22:53;;;;;;;0.73;0.52;;;;;;;15.12;nan;102525.41;10528733;28;20058;-83
2022/03/06 16:27:56;;;;;;;1.30;0.55;;;;;;;15.42;nan;102522.06;10528449;28;20056;-79
2022/03/06 16:32:57;;;;;;;1.33;0.85;;;;;;;15.20;nan;102523.97;10533939;28;20058;-81
2022/03/06 16:37:59;;;;;;;0.22;0.20;;;;;;;15.23;nan;102521.44;10529257;28;20711;-81
2022/03/06 16:43:01;;;;;;;0.60;0.40;;;;;;;14.80;nan;102525.22;10549011;28;20036;-80
2022/03/06 16:48:03;;;;;;;0.90;0.65;;;;;;;14.71;nan;102519.69;10547989;28;20169;-80
2022/03/06 16:53:13;;;;;;;1.48;1.02;;;;;;;15.50;nan;102519.69;10517969;27;20040;-81
2022/03/06 16:58:15;;;;;;;2.20;0.93;;;;;;;15.10;nan;102518.41;10541040;27;20063;-81
2022/03/06 17:03:17;;;;;;;0.22;0.22;;;;;;;15.27;nan;102527.63;10540139;27;20052;-81
2022/03/06 17:08:20;;;;;;;0.98;0.60;;;;;;;15.10;nan;102518.41;10548558;27;20479;-81
2022/03/06 17:13:23;;;;;;;0.25;0.17;;;;;;;15.52;nan;102523.22;10553849;27;20048;-81
2022/03/06 17:18:25;;;;;;;0.40;0.10;;;;;;;14.84;nan;102532.28;10534400;27;20054;-81
2022/03/06 17:23:27;;;;;;;0.00;0.00;;;;;;;15.66;nan;102534.06;10537083;27;20063;-80
2022/03/06 17:28:29;;;;;;;3.80;0.40;;;;;;;14.91;nan;102546.34;10509166;28;20417;-81
2022/03/06 17:33:30;;;;;;;0.10;0.10;;;;;;;14.86;nan;102546.16;10534930;28;20056;-81
2022/03/06 17:38:35;;;;;;;0.00;0.00;;;;;;;15.69;nan;102558.41;10516594;28;20058;-81
2022/03/06 17:43:38;;;;;;;0.38;0.20;;;;;;;14.93;nan;102556.78;10528771;28;20142;-81
2022/03/06 17:48:40;;;;;;;0.28;0.28;;;;;;;15.16;nan;102555.81;10540307;28;20048;-81
2022/03/06 17:53:44;;;;;;;0.03;0.03;;;;;;;14.51;nan;102558.75;10533890;28;20533;-81
2022/03/06 17:58:46;;;;;;;0.10;0.10;;;;;;;13.83;nan;102569.16;10527163;28;20058;-81
2022/03/06 18:03:49;;;;;;;0.00;0.00;;;;;;;15.41;nan;102571.34;10517916;28;20548;-81
2022/03/06 18:08:51;;;;;;;0.00;0.00;;;;;;;15.23;nan;102578.56;10543382;28;20119;-81
2022/03/06 18:13:53;;;;;;;0.68;0.47;;;;;;;14.51;nan;102583.81;10535855;28;20036;-81
2022/03/06 18:18:57;;;;;;;0.13;0.13;;;;;;;14.40;nan;102586.03;10543497;28;20772;-81
2022/03/06 18:23:59;;;;;;;0.00;0.00;;;;;;;15.13;nan;102586.91;10544277;28;20039;-80
2022/03/06 18:29:00;;;;;;;1.05;0.40;;;;;;;14.95;nan;102586.25;10559600;28;20044;-81
2022/03/06 18:34:09;;;;;;;0.00;0.00;;;;;;;15.71;nan;102589.63;10569604;28;20496;-81
2022/03/06 18:39:12;;;;;;;0.00;0.00;;;;;;;15.72;nan;102599.19;10552464;28;20488;-81
2022/03/06 18:44:16;;;;;;;0.00;0.00;;;;;;;15.41;nan;102602.53;10568577;28;20044;-81
2022/03/06 18:49:18;;;;;;;0.00;0.00;;;;;;;15.22;nan;102601.88;10550117;28;20490;-79
2022/03/06 18:54:25;;;;;;;0.00;0.00;;;;;;;14.64;nan;102604.19;10556860;28;20089;-81
2022/03/06 18:59:28;;;;;;;0.00;0.00;;;;;;;14.97;nan;102605.34;10539503;28;20043;-81
2022/03/06 19:04:30;;;;;;;0.10;0.10;;;;;;;14.72;nan;102604.47;10571171;28;20158;-82
2022/03/06 19:09:32;;;;;;;0.00;0.00;;;;;;;14.68;nan;102606.06;10539975;28;20039;-79
2022/03/06 19:14:33;;;;;;;0.00;0.00;;;;;;;15.50;nan;102605.41;10557660;28;20048;-80
2022/03/06 19:19:35;;;;;;;0.30;0.30;;;;;;;14.79;nan;102622.03;10551856;28;20047;-80
2022/03/06 19:24:39;;;;;;;0.00;0.00;;;;;;;14.44;nan;102630.25;10568205;28;20044;-80
2022/03/06 19:29:42;;;;;;;0.00;0.00;;;;;;;14.96;nan;102627.84;10569230;27;20409;-81
2022/03/06 19:34:44;;;;;;;0.68;0.65;;;;;;;14.12;nan;102626.44;10559824;27;20122;-80
2022/03/06 19:39:48;;;;;;;0.00;0.00;;;;;;;14.78;nan;102628.03;10570523;27;20035;-80
2022/03/06 19:44:50;;;;;;;0.00;0.00;;;;;;;14.96;nan;102634.72;10591209;27;20043;-80
2022/03/06 19:49:52;;;;;;;0.00;0.00;;;;;;;14.42;nan;102636.19;10534184;27;20058;-79
2022/03/06 19:54:54;;;;;;;0.00;0.00;;;;;;;14.41;nan;102644.81;10564505;27;20161;-81
2022/03/06 19:59:55;;;;;;;0.00;0.00;;;;;;;13.68;nan;102639.41;10579356;27;20061;-81
2022/03/06 20:04:57;;;;;;;0.00;0.00;;;;;;;12.98;nan;102643.31;10568504;27;20043;-82
2022/03/06 20:09:58;;;;;;;0.00;0.00;;;;;;;13.82;nan;102647.72;10556382;27;20039;-81
2022/03/06 20:15:00;;;;;;;0.20;0.20;;;;;;;14.00;nan;102651.88;10542998;27;20056;-81
2022/03/06 20:20:05;;;;;;;0.00;0.00;;;;;;;14.17;nan;102653.44;10553603;27;20047;-80
2022/03/06 20:25:09;;;;;;;0.00;0.00;;;;;;;14.70;nan;102653.72;10569041;27;20104;-80
2022/03/06 20:30:12;;;;;;;0.10;0.10;;;;;;;14.22;nan;102659.66;10559424;27;20028;-81
2022/03/06 20:35:14;;;;;;;0.38;0.35;;;;;;;12.69;nan;102661.91;10516230;28;20048;-80
2022/03/06 20:40:16;;;;;;;0.00;0.00;;;;;;;13.84;nan;102661.63;10559915;27;20429;-80
2022/03/06 20:45:18;;;;;;;0.00;0.00;;;;;;;14.59;nan;102671.44;10568914;27;20042;-80
2022/03/06 20:50:21;;;;;;;0.00;0.00;;;;;;;14.77;nan;102667.81;10611617;27;20530;-82
2022/03/06 20:55:23;;;;;;;0.00;0.00;;;;;;;14.11;nan;102663.56;10546257;28;20385;-80
2022/03/06 21:00:25;;;;;;;0.25;0.10;;;;;;;14.19;nan;102675.09;10562285;27;20039;-81
2022/03/06 21:05:27;;;;;;;0.08;0.08;;;;;;;14.23;nan;102666.63;10556923;27;20047;-80
2022/03/06 21:10:29;;;;;;;0.00;0.00;;;;;;;14.67;nan;102652.72;10562111;27;20128;-81
2022/03/06 21:15:34;;;;;;;0.00;0.00;;;;;;;14.30;nan;102661.69;10575805;27;20040;-80
2022/03/06 21:20:36;;;;;;;0.00;0.00;;;;;;;14.05;nan;102663.28;10535676;27;20144;-80
2022/03/06 21:25:38;;;;;;;0.00;0.00;;;;;;;14.68;nan;102664.88;10567225;27;20031;-81
2022/03/06 21:30:41;;;;;;;0.00;0.00;;;;;;;14.53;nan;102673.81;10560691;27;20044;-81
2022/03/06 21:35:42;;;;;;;0.00;0.00;;;;;;;16.82;nan;102657.09;10569327;27;20028;-81
2022/03/06 21:40:45;;;;;;;0.00;0.00;;;;;;;15.22;nan;102659.91;10549330;28;20151;-80
2022/03/06 21:45:46;;;;;;;0.00;0.00;;;;;;;14.06;nan;102670.25;10552295;28;20039;-82
2022/03/06 21:50:48;;;;;;;0.05;0.05;;;;;;;12.17;nan;102685.31;10570222;28;20093;-82
2022/03/06 21:55:50;;;;;;;0.00;0.00;;;;;;;12.88;nan;102678.25;10570440;28;20047;-82
2022/03/06 22:00:52;;;;;;;0.00;0.00;;;;;;;16.62;nan;102661.72;10536896;28;20047;-82
2022/03/06 22:05:53;;;;;;;0.00;0.00;;;;;;;16.65;nan;102667.91;10560246;28;20036;-82
2022/03/06 22:10:58;;;;;;;0.00;0.00;;;;;;;16.21;nan;102682.16;10563631;28;20120;-81
2022/03/06 22:15:59;;;;;;;0.00;0.00;;;;;;;14.31;nan;102685.06;10586860;28;20130;-82
2022/03/06 22:21:02;;;;;;;0.00;0.00;;;;;;;15.39;nan;102676.06;10540096;28;20502;-82
2022/03/06 22:26:04;;;;;;;0.00;0.00;;;;;;;15.31;nan;102679.22;10573468;28;20031;-82
2022/03/06 22:31:06;;;;;;;0.00;0.00;;;;;;;14.83;nan;102699.16;10562022;28;20056;-82
2022/03/06 22:36:07;;;;;;;0.00;0.00;;;;;;;15.00;nan;102692.00;10533854;28;20058;-82
2022/03/06 22:41:09;;;;;;;0.00;0.00;;;;;;;16.41;nan;102688.88;10554549;28;20483;-82
2022/03/06 22:46:11;;;;;;;0.00;0.00;;;;;;;16.11;nan;102684.50;10573479;28;20047;-81
2022/03/06 22:51:13;;;;;;;0.03;0.03;;;;;;;15.81;nan;102684.34;10538398;28;20388;-81
2022/03/06 22:56:15;;;;;;;0.10;0.10;;;;;;;15.82;nan;102689.59;10553013;27;20048;-82
2022/03/06 23:01:19;;;;;;;0.00;0.00;;;;;;;16.38;nan;102686.19;10563874;28;20052;-81
2022/03/06 23:11:42;;;;;;;;;;;;;;;16.72;nan;102678.50;10557509;27;20043;-81
2022/03/06 23:16:43;;;;;;;0.05;0.05;;;;;;;15.63;nan;102687.22;10537857;27;19919;-81
2022/03/06 23:21:46;;;;;;;0.10;0.10;;;;;;;15.32;nan;102680.97;10559169;27;20053;-82
2022/03/06 23:26:48;;;;;;;0.00;0.00;;;;;;;15.64;nan;102686.41;10558397;27;20051;-82
2022/03/06 23:31:50;;;;;;;0.13;0.13;;;;;;;15.54;nan;102683.47;10529536;28;20066;-83
2022/03/06 23:36:51;;;;;;;0.10;0.10;;;;;;;15.29;nan;102680.91;10573308;28;20035;-82
2022/03/06 23:41:53;;;;;;;0.10;0.10;;;;;;;14.30;nan;102690.19;10562909;28;20114;-81
2022/03/06 23:46:55;;;;;;;0.10;0.10;;;;;;;15.33;nan;102672.38;10561839;27;20040;-82
2022/03/06 23:51:56;;;;;;;0.00;0.00;;;;;;;15.27;nan;102677.34;10563230;27;20074;-82
2022/03/06 23:56:58;;;;;;;0.00;0.00;;;;;;;14.84;nan;102682.78;10574842;27;20048;-82
